createdAt,value
2023-01-03T00:01:00.462Z,9.02
2023-01-03T00:03:35.219Z,9.70
2023-01-03T00:06:18.657Z,8.18
2023-01-03T00:08:54.258Z,9.00
2023-01-03T00:11:41.209Z,8.73
2023-01-03T00:14:20.022Z,8.05
2023-01-03T00:16:54.855Z,7.80
2023-01-03T00:19:30.362Z,6.50
2023-01-03T00:22:04.438Z,5.90
2023-01-03T00:24:40.012Z,5.50
2023-01-03T00:27:15.851Z,4.55
2023-01-03T00:29:53.437Z,3.95
2023-01-03T00:32:31.386Z,3.75
2023-01-03T00:35:07.539Z,4.03
2023-01-03T00:40:17.215Z,3.85
2023-01-03T00:43:06.424Z,3.90
2023-01-03T00:45:42.010Z,4.07
2023-01-03T00:48:17.568Z,3.93
2023-01-03T00:50:54.749Z,3.63
2023-01-03T00:53:30.397Z,4.00
2023-01-03T00:56:01.546Z,3.42
2023-01-03T00:58:37.400Z,3.40
2023-01-03T01:01:16.359Z,3.40
2023-01-03T01:03:54.754Z,3.65
2023-01-03T01:06:30.510Z,4.15
2023-01-03T01:09:07.189Z,3.90
2023-01-03T01:11:42.814Z,3.45
2023-01-03T01:14:25.926Z,3.33
2023-01-03T01:16:59.617Z,3.70
2023-01-03T01:19:39.163Z,3.25
2023-01-03T01:22:13.905Z,3.47
2023-01-03T01:24:49.575Z,4.72
2023-01-03T01:27:25.553Z,4.20
2023-01-03T01:30:01.928Z,3.58
2023-01-03T01:32:37.206Z,3.67
2023-01-03T01:35:15.792Z,4.40
2023-01-03T01:37:50.534Z,4.25
2023-01-03T01:40:26.602Z,4.20
2023-01-03T01:43:17.737Z,3.70
2023-01-03T01:48:33.559Z,3.30
2023-01-03T01:51:11.087Z,3.65
2023-01-03T01:53:45.480Z,3.95
2023-01-03T01:56:22.148Z,3.77
2023-01-03T01:58:57.298Z,5.03
2023-01-03T02:01:31.605Z,3.63
2023-01-03T02:04:08.039Z,4.00
2023-01-03T02:06:45.514Z,4.05
2023-01-03T02:09:22.337Z,4.50
2023-01-03T02:12:10.882Z,5.32
2023-01-03T02:14:56.497Z,4.50
2023-01-03T02:17:35.675Z,4.90
2023-01-03T02:20:27.496Z,4.90
2023-01-03T02:23:24.758Z,5.05
2023-01-03T02:26:35.473Z,4.95
2023-01-03T02:29:21.729Z,4.90
2023-01-03T02:31:55.382Z,5.45
2023-01-03T02:34:37.785Z,5.68
2023-01-03T02:37:17.279Z,5.67
2023-01-03T02:39:55.330Z,6.10
2023-01-03T02:42:45.672Z,4.90
2023-01-03T02:45:21.848Z,5.80
2023-01-03T02:50:34.238Z,5.90
2023-01-03T02:53:11.061Z,5.68
2023-01-03T02:55:46.511Z,6.07
2023-01-03T02:58:23.555Z,5.35
2023-01-03T03:01:00.207Z,5.55
2023-01-03T03:03:36.810Z,5.10
2023-01-03T03:06:16.208Z,5.22
2023-01-03T03:08:51.551Z,5.83
2023-01-03T03:11:37.784Z,5.65
2023-01-03T03:14:19.606Z,6.57
2023-01-03T03:16:55.508Z,5.50
2023-01-03T03:19:43.183Z,5.38
2023-01-03T03:22:52.341Z,4.75
2023-01-03T03:25:31.116Z,4.20
2023-01-03T03:28:20.312Z,4.65
2023-01-03T03:30:56.805Z,3.40
2023-01-03T03:33:32.637Z,3.72
2023-01-03T03:36:12.297Z,3.95
2023-01-03T03:38:50.935Z,2.97
2023-01-03T03:41:40.805Z,3.43
2023-01-03T03:44:33.095Z,3.15
2023-01-03T03:47:20.805Z,3.35
2023-01-03T03:49:56.869Z,2.75
2023-01-03T03:55:11.967Z,3.20
2023-01-03T03:57:49.566Z,3.70
2023-01-03T04:00:25.633Z,3.50
2023-01-03T04:05:37.913Z,3.25
2023-01-03T04:08:13.428Z,2.80
2023-01-03T04:11:05.791Z,2.65
2023-01-03T04:13:41.044Z,2.55
2023-01-03T04:16:16.400Z,2.15
2023-01-03T04:18:53.592Z,2.30
2023-01-03T04:21:29.552Z,2.50
2023-01-03T04:26:41.701Z,2.90
2023-01-03T04:29:16.992Z,3.25
2023-01-03T04:31:51.635Z,3.60
2023-01-03T04:34:27.737Z,3.45
2023-01-03T04:39:38.407Z,3.00
2023-01-03T04:42:27.790Z,2.78
2023-01-03T04:45:03.630Z,2.90
2023-01-03T04:47:38.556Z,3.00
2023-01-03T04:50:13.115Z,2.60
2023-01-03T04:52:46.436Z,2.85
2023-01-03T04:55:21.102Z,2.80
2023-01-03T04:57:58.575Z,2.22
2023-01-03T05:00:33.593Z,2.95
2023-01-03T05:03:09.750Z,2.50
2023-01-03T05:05:45.113Z,2.97
2023-01-03T05:08:20.548Z,3.55
2023-01-03T05:10:56.027Z,3.10
2023-01-03T05:13:35.646Z,2.70
2023-01-03T05:16:11.729Z,3.60
2023-01-03T05:21:36.188Z,3.13
2023-01-03T05:24:24.954Z,3.50
2023-01-03T05:26:59.873Z,3.40
2023-01-03T05:29:37.789Z,3.55
2023-01-03T05:32:13.405Z,3.38
2023-01-03T05:34:48.273Z,4.47
2023-01-03T05:37:25.230Z,4.17
2023-01-03T05:39:59.795Z,4.32
2023-01-03T05:42:35.349Z,4.18
2023-01-03T05:45:14.891Z,4.13
2023-01-03T05:47:50.986Z,4.25
2023-01-03T05:53:02.245Z,3.20
2023-01-03T05:55:39.714Z,4.10
2023-01-03T05:58:14.638Z,3.70
2023-01-03T06:00:52.715Z,3.67
2023-01-03T06:03:27.518Z,3.80
2023-01-03T06:06:06.014Z,3.75
2023-01-03T06:08:40.782Z,3.20
2023-01-03T06:11:18.243Z,3.15
2023-01-03T06:13:55.486Z,2.83
2023-01-03T06:16:46.338Z,2.80
2023-01-03T06:19:21.238Z,4.35
2023-01-03T06:21:57.552Z,4.72
2023-01-03T06:24:32.512Z,4.80
2023-01-03T06:27:08.042Z,4.30
2023-01-03T06:29:43.582Z,3.30
2023-01-03T06:32:21.651Z,3.05
2023-01-03T06:34:56.968Z,3.45
2023-01-03T06:37:32.339Z,2.72
2023-01-03T06:40:08.286Z,3.55
2023-01-03T06:42:43.449Z,3.15
2023-01-03T06:45:31.810Z,3.58
2023-01-03T06:48:25.234Z,2.72
2023-01-03T06:51:11.853Z,3.50
2023-01-03T06:56:23.374Z,3.08
2023-01-03T06:58:59.086Z,2.67
2023-01-03T07:01:34.754Z,2.83
2023-01-03T07:04:13.723Z,2.60
2023-01-03T07:06:49.382Z,2.95
2023-01-03T07:09:24.485Z,2.58
2023-01-03T07:12:19.272Z,2.90
2023-01-03T07:14:52.146Z,3.85
2023-01-03T07:17:30.867Z,3.25
2023-01-03T07:20:09.559Z,2.70
2023-01-03T07:22:45.080Z,2.80
2023-01-03T07:25:21.046Z,2.78
2023-01-03T07:28:05.815Z,2.80
2023-01-03T07:30:42.733Z,2.53
2023-01-03T07:33:19.251Z,3.40
2023-01-03T07:36:06.111Z,3.65
2023-01-03T07:38:46.974Z,3.97
2023-01-03T07:41:22.507Z,4.18
2023-01-03T07:43:54.922Z,4.07
2023-01-03T07:46:31.225Z,3.50
2023-01-03T07:49:12.195Z,3.97
2023-01-03T07:51:53.544Z,5.07
2023-01-03T07:54:28.935Z,5.03
2023-01-03T07:57:03.863Z,4.80
2023-01-03T07:59:40.527Z,4.80
2023-01-03T08:02:19.913Z,4.35
2023-01-03T08:04:55.698Z,4.07
2023-01-03T08:07:34.493Z,4.65
2023-01-03T08:10:22.311Z,4.22
2023-01-03T08:13:08.991Z,5.00
2023-01-03T08:15:47.953Z,4.57
2023-01-03T08:18:26.601Z,5.50
2023-01-03T08:21:03.444Z,4.40
2023-01-03T08:23:41.401Z,4.20
2023-01-03T08:26:12.679Z,6.15
2023-01-03T08:28:48.624Z,5.80
2023-01-03T08:31:26.132Z,5.07
2023-01-03T08:34:06.447Z,6.68
2023-01-03T08:36:47.380Z,7.03
2023-01-03T08:39:26.453Z,5.87
2023-01-03T08:42:03.239Z,4.60
2023-01-03T08:44:39.137Z,6.53
2023-01-03T08:49:49.186Z,4.15
2023-01-03T08:52:25.394Z,3.93
2023-01-03T08:55:05.893Z,6.15
2023-01-03T08:57:42.471Z,5.47
2023-01-03T09:00:18.385Z,7.28
2023-01-03T09:02:53.094Z,5.50
2023-01-03T09:05:28.959Z,6.22
2023-01-03T09:08:04.430Z,5.60
2023-01-03T09:10:45.521Z,4.47
2023-01-03T09:13:23.955Z,4.70
2023-01-03T09:16:04.519Z,4.15
2023-01-03T09:18:39.665Z,4.60
2023-01-03T09:21:17.446Z,4.70
2023-01-03T09:23:54.318Z,4.23
2023-01-03T09:26:32.336Z,5.28
2023-01-03T09:29:07.893Z,4.97
2023-01-03T09:31:45.657Z,5.30
2023-01-03T09:34:22.402Z,5.55
2023-01-03T09:36:57.497Z,5.40
2023-01-03T09:39:30.321Z,4.85
2023-01-03T09:42:19.993Z,4.43
2023-01-03T09:44:55.536Z,5.45
2023-01-03T09:47:31.275Z,5.40
2023-01-03T09:53:14.669Z,5.90
2023-01-03T09:56:05.035Z,5.70
2023-01-03T09:58:55.448Z,4.70
2023-01-03T10:01:49.290Z,5.80
2023-01-03T10:04:42.836Z,6.45
2023-01-03T10:07:24.722Z,5.35
2023-01-03T10:10:06.840Z,4.28
2023-01-03T10:12:49.233Z,4.60
2023-01-03T10:15:31.853Z,3.67
2023-01-03T10:18:11.098Z,4.10
2023-01-03T10:20:44.858Z,7.55
2023-01-03T10:23:20.824Z,5.07
2023-01-03T10:28:41.657Z,3.73
2023-01-03T10:31:40.454Z,3.13
2023-01-03T10:34:15.498Z,3.35
2023-01-03T10:36:51.043Z,3.67
2023-01-03T10:39:33.244Z,4.23
2023-01-03T10:42:06.049Z,5.97
2023-01-03T10:44:42.672Z,4.30
2023-01-03T10:47:23.030Z,3.80
2023-01-03T10:50:04.920Z,3.70
2023-01-03T10:52:42.137Z,3.30
2023-01-03T10:55:18.299Z,3.15
2023-01-03T10:58:02.927Z,3.10
2023-01-03T11:00:39.212Z,2.80
2023-01-03T11:03:19.607Z,2.50
2023-01-03T11:06:12.435Z,3.42
2023-01-03T11:08:48.162Z,3.05
2023-01-03T11:11:31.585Z,2.83
2023-01-03T11:14:30.139Z,2.80
2023-01-03T11:17:06.223Z,2.70
2023-01-03T11:19:44.484Z,2.20
2023-01-03T11:22:21.267Z,2.80
2023-01-03T11:25:08.250Z,3.05
2023-01-03T11:28:27.746Z,1.85
2023-01-03T11:31:02.206Z,5.03
2023-01-03T11:33:50.487Z,4.10
2023-01-03T11:36:48.797Z,2.10
2023-01-03T11:39:41.296Z,2.38
2023-01-03T11:42:42.209Z,2.58
2023-01-03T11:45:59.351Z,3.67
2023-01-03T11:48:43.014Z,2.78
2023-01-03T11:51:19.080Z,2.80
2023-01-03T11:56:39.637Z,3.40
2023-01-03T11:59:43.685Z,1.70
2023-01-03T12:03:00.068Z,1.95
2023-01-03T12:05:28.751Z,3.40
2023-01-03T12:08:10.857Z,2.15
2023-01-03T12:11:06.200Z,1.65
2023-01-03T12:13:44.006Z,2.15
2023-01-03T12:16:23.684Z,2.67
2023-01-03T12:19:00.850Z,2.60
2023-01-03T12:21:39.113Z,1.70
2023-01-03T12:24:16.643Z,1.65
2023-01-03T12:26:57.059Z,1.80
2023-01-03T12:29:33.378Z,2.03
2023-01-03T12:32:12.157Z,1.95
2023-01-03T12:34:48.797Z,1.80
2023-01-03T12:37:25.508Z,1.70
2023-01-03T12:40:01.275Z,1.60
2023-01-03T12:42:41.600Z,2.28
2023-01-03T12:45:32.825Z,1.70
2023-01-03T12:48:15.173Z,1.60
2023-01-03T12:50:52.647Z,1.90
2023-01-03T12:53:29.511Z,1.67
2023-01-03T12:56:15.215Z,1.80
2023-01-03T12:59:00.004Z,1.70
2023-01-03T13:01:40.579Z,1.85
2023-01-03T13:04:23.815Z,2.00
2023-01-03T13:07:05.621Z,1.80
2023-01-03T13:09:40.041Z,1.80
2023-01-03T13:12:18.499Z,2.13
2023-01-03T13:14:59.850Z,1.90
2023-01-03T13:17:36.255Z,1.95
2023-01-03T13:20:29.838Z,2.10
2023-01-03T13:23:05.568Z,2.25
2023-01-03T13:25:44.412Z,2.20
2023-01-03T13:28:34.534Z,2.33
2023-01-03T13:31:40.804Z,2.38
2023-01-03T13:34:37.327Z,2.25
2023-01-03T13:37:22.161Z,2.28
2023-01-03T13:41:07.638Z,2.20
2023-01-03T13:46:02.947Z,2.85
2023-01-03T13:48:43.415Z,2.20
2023-01-03T13:51:41.907Z,2.30
2023-01-03T13:54:32.079Z,2.73
2023-01-03T13:57:09.707Z,2.85
2023-01-03T13:59:47.666Z,2.75
2023-01-03T14:02:55.570Z,2.55
2023-01-03T14:06:06.443Z,2.70
2023-01-03T14:08:37.785Z,2.50
2023-01-03T14:11:42.641Z,3.00
2023-01-03T14:14:22.139Z,3.00
2023-01-03T14:16:58.038Z,3.10
2023-01-03T14:19:34.274Z,3.95
2023-01-03T14:22:28.800Z,3.50
2023-01-03T14:25:08.082Z,2.70
2023-01-03T14:27:45.953Z,1.80
2023-01-03T14:30:28.257Z,2.00
2023-01-03T14:33:04.091Z,2.63
2023-01-03T14:35:42.366Z,3.63
2023-01-03T14:38:27.151Z,3.70
2023-01-03T14:41:03.396Z,4.00
2023-01-03T14:43:38.872Z,4.18
2023-01-03T14:46:17.477Z,3.65
2023-01-03T14:48:56.741Z,4.47
2023-01-03T14:51:36.174Z,6.72
2023-01-03T14:54:11.276Z,5.38
2023-01-03T14:56:47.934Z,5.85
2023-01-03T14:59:25.447Z,5.50
2023-01-03T15:02:03.318Z,5.40
2023-01-03T15:04:38.862Z,5.25
2023-01-03T15:07:32.227Z,5.65
2023-01-03T15:10:09.170Z,6.30
2023-01-03T15:12:46.213Z,5.15
2023-01-03T15:15:23.903Z,5.50
2023-01-03T15:18:07.019Z,5.65
2023-01-03T15:20:45.337Z,5.20
2023-01-03T15:23:29.704Z,6.70
2023-01-03T15:26:05.654Z,5.78
2023-01-03T15:28:41.529Z,6.45
2023-01-03T15:31:25.070Z,6.65
2023-01-03T15:34:07.267Z,6.78
2023-01-03T15:36:42.236Z,7.30
2023-01-03T15:39:19.685Z,6.80
2023-01-03T15:42:42.814Z,6.80
2023-01-03T15:45:13.272Z,6.53
2023-01-03T15:47:47.887Z,6.30
2023-01-03T15:50:26.499Z,6.53
2023-01-03T15:53:02.431Z,5.68
2023-01-03T15:55:36.751Z,5.95
2023-01-03T15:58:13.031Z,5.60
2023-01-03T16:00:49.291Z,7.03
2023-01-03T16:03:23.791Z,6.28
2023-01-03T16:06:02.188Z,7.15
2023-01-03T16:08:37.926Z,6.45
2023-01-03T16:11:19.626Z,7.50
2023-01-03T16:13:55.906Z,7.90
2023-01-03T16:16:32.522Z,15.70
2023-01-03T16:19:08.928Z,15.57
2023-01-03T16:22:16.068Z,16.00
2023-01-03T16:24:42.688Z,13.65
2023-01-03T16:27:18.601Z,16.33
2023-01-03T16:29:55.864Z,15.85
2023-01-03T16:32:32.382Z,17.45
2023-01-03T16:35:12.108Z,19.35
2023-01-03T16:37:52.423Z,25.33
2023-01-03T16:40:27.405Z,25.58
2023-01-03T16:43:07.721Z,26.63
2023-01-03T16:45:47.502Z,22.40
2023-01-03T16:48:24.787Z,26.42
2023-01-03T16:51:08.711Z,26.05
2023-01-03T16:53:53.063Z,24.98
2023-01-03T16:56:29.125Z,21.63
2023-01-03T17:01:39.280Z,19.55
2023-01-03T17:04:14.536Z,21.20
2023-01-03T17:06:50.048Z,20.00
2023-01-03T17:09:33.629Z,21.70
2023-01-03T17:12:08.054Z,36.30
2023-01-03T17:14:44.488Z,23.17
2023-01-03T17:17:20.154Z,28.42
2023-01-03T17:20:05.023Z,27.42
2023-01-03T17:22:41.705Z,24.63
2023-01-03T17:25:20.741Z,23.25
2023-01-03T17:27:57.602Z,44.92
2023-01-03T17:30:32.710Z,35.83
2023-01-03T17:33:10.316Z,40.87
2023-01-03T17:35:45.251Z,46.60
2023-01-03T17:38:26.473Z,47.20
2023-01-03T17:41:07.444Z,57.20
2023-01-03T17:43:40.186Z,52.25
2023-01-03T17:46:33.212Z,58.15
2023-01-03T17:49:21.630Z,52.38
2023-01-03T17:51:59.540Z,51.65
2023-01-03T17:54:34.892Z,52.35
2023-01-03T17:57:14.172Z,53.15
2023-01-03T17:59:50.885Z,51.28
2023-01-03T18:02:27.468Z,45.30
2023-01-03T18:05:24.510Z,41.90
2023-01-03T18:07:58.805Z,39.95
2023-01-03T18:10:40.133Z,38.63
2023-01-03T18:13:25.899Z,41.88
2023-01-03T18:16:02.060Z,48.95
2023-01-03T18:18:38.095Z,53.38
2023-01-03T18:23:58.753Z,46.05
2023-01-03T18:26:36.030Z,52.40
2023-01-03T18:29:16.726Z,40.40
2023-01-03T18:31:50.967Z,49.90
2023-01-03T18:34:26.564Z,55.05
2023-01-03T18:36:59.186Z,55.47
2023-01-03T18:39:34.755Z,49.95
2023-01-03T18:42:23.816Z,52.78
2023-01-03T18:45:02.747Z,42.80
2023-01-03T18:47:53.898Z,46.77
2023-01-03T18:50:27.918Z,49.33
2023-01-03T18:53:04.534Z,39.70
2023-01-03T18:55:38.963Z,40.70
2023-01-03T18:58:21.489Z,40.45
2023-01-03T19:01:01.817Z,52.65
2023-01-03T19:03:38.643Z,44.40
2023-01-03T19:06:17.322Z,46.03
2023-01-03T19:08:52.323Z,40.90
2023-01-03T19:11:30.074Z,38.05
2023-01-03T19:14:06.008Z,37.92
2023-01-03T19:16:45.973Z,40.03
2023-01-03T19:19:21.157Z,35.15
2023-01-03T19:21:56.501Z,37.97
2023-01-03T19:24:38.461Z,35.95
2023-01-03T19:27:15.627Z,34.10
2023-01-03T19:32:31.497Z,30.30
2023-01-03T19:35:06.794Z,29.30
2023-01-03T19:37:43.258Z,35.30
2023-01-03T19:40:19.959Z,34.65
2023-01-03T19:42:56.283Z,30.33
2023-01-03T19:45:32.135Z,30.38
2023-01-03T19:50:57.374Z,26.92
2023-01-03T19:53:32.569Z,31.40
2023-01-03T19:56:08.785Z,26.40
2023-01-03T19:58:44.749Z,36.25
2023-01-03T20:01:20.733Z,34.90
2023-01-03T20:03:59.877Z,40.05
2023-01-03T20:06:36.448Z,51.00
2023-01-03T20:09:12.824Z,42.53
2023-01-03T20:11:48.563Z,44.45
2023-01-03T20:14:24.206Z,52.60
2023-01-03T20:17:00.181Z,53.03
2023-01-03T20:19:38.163Z,52.70
2023-01-03T20:22:37.234Z,78.63
2023-01-03T20:25:11.105Z,77.73
2023-01-03T20:27:48.124Z,100.13
2023-01-03T20:30:24.482Z,64.45
2023-01-03T20:33:00.779Z,52.58
2023-01-03T20:38:37.207Z,40.15
2023-01-03T20:41:11.391Z,37.80
2023-01-03T20:43:47.722Z,48.28
2023-01-03T20:46:27.057Z,41.85
2023-01-03T20:49:03.462Z,43.90
2023-01-03T20:51:42.925Z,43.45
2023-01-03T20:54:18.873Z,40.85
2023-01-03T20:59:30.561Z,37.65
2023-01-03T21:02:05.704Z,30.90
2023-01-03T21:04:43.532Z,29.87
2023-01-03T21:07:49.472Z,33.47
2023-01-03T21:10:27.061Z,40.97
2023-01-03T21:13:04.544Z,39.63
2023-01-03T21:15:39.887Z,38.28
2023-01-03T21:18:23.860Z,38.40
2023-01-03T21:20:59.890Z,46.92
2023-01-03T21:26:12.127Z,48.67
2023-01-03T21:28:47.562Z,47.83
2023-01-03T21:31:22.696Z,48.67
2023-01-03T21:33:58.529Z,45.50
2023-01-03T21:36:35.523Z,40.85
2023-01-03T21:39:16.883Z,40.58
2023-01-03T21:42:04.682Z,37.22
2023-01-03T21:44:39.513Z,53.75
2023-01-03T21:47:14.548Z,47.37
2023-01-03T21:49:49.845Z,39.55
2023-01-03T21:52:25.185Z,34.93
2023-01-03T21:55:01.672Z,40.53
2023-01-03T21:57:38.575Z,53.00
2023-01-03T22:00:16.139Z,54.60
2023-01-03T22:03:04.551Z,59.00
2023-01-03T22:05:40.641Z,59.65
2023-01-03T22:10:57.344Z,53.60
2023-01-03T22:13:34.316Z,69.32
2023-01-03T22:16:13.414Z,71.75
2023-01-03T22:18:50.228Z,59.80
2023-01-03T22:21:29.044Z,59.53
2023-01-03T22:24:05.482Z,58.80
2023-01-03T22:26:45.079Z,56.83
2023-01-03T22:29:26.604Z,56.15
2023-01-03T22:32:03.286Z,49.63
2023-01-03T22:34:40.699Z,57.65
2023-01-03T22:37:21.380Z,68.82
2023-01-03T22:39:57.128Z,50.85
2023-01-03T22:45:15.982Z,54.17
2023-01-03T22:47:53.444Z,60.90
2023-01-03T22:50:28.140Z,57.17
2023-01-03T22:53:03.973Z,53.43
2023-01-03T22:55:41.006Z,60.80
2023-01-03T22:58:20.432Z,60.13
2023-01-03T23:00:57.118Z,56.58
2023-01-03T23:03:34.542Z,59.55
2023-01-03T23:06:11.062Z,60.90
2023-01-03T23:08:47.695Z,65.93
2023-01-03T23:11:35.286Z,51.35
2023-01-03T23:14:15.637Z,57.40
2023-01-03T23:16:51.201Z,57.60
2023-01-03T23:19:28.175Z,55.47
2023-01-03T23:22:03.196Z,48.20
2023-01-03T23:24:39.211Z,52.25
2023-01-03T23:27:16.917Z,49.42
2023-01-03T23:29:55.972Z,47.53
2023-01-03T23:32:33.652Z,45.45
2023-01-03T23:35:12.523Z,35.53
2023-01-03T23:37:45.180Z,35.35
2023-01-03T23:40:21.340Z,35.47
2023-01-03T23:42:55.838Z,28.90
2023-01-03T23:45:33.846Z,30.98
2023-01-03T23:48:10.163Z,34.30
2023-01-03T23:50:46.231Z,32.00
2023-01-03T23:55:57.480Z,33.50
2023-01-03T23:58:32.725Z,31.40
